createdAt,value
2023-01-09T00:02:06.108Z,21.30
2023-01-09T00:07:10.261Z,21.30
2023-01-09T00:12:13.925Z,21.30
2023-01-09T00:17:19.217Z,21.20
2023-01-09T00:22:23.047Z,21.20
2023-01-09T00:27:26.808Z,21.20
2023-01-09T00:32:32.066Z,21.20
2023-01-09T00:37:35.697Z,21.20
2023-01-09T00:42:39.811Z,21.10
2023-01-09T00:47:49.851Z,21.10
2023-01-09T00:52:57.171Z,21.10
2023-01-09T00:58:00.870Z,21.10
2023-01-09T01:03:07.402Z,21.10
2023-01-09T01:08:14.928Z,21.10
2023-01-09T01:13:19.116Z,21.10
2023-01-09T01:18:24.387Z,21.10
2023-01-09T01:23:28.164Z,21.10
2023-01-09T01:28:31.955Z,21.10
2023-01-09T01:33:37.807Z,21.10
2023-01-09T01:38:41.527Z,21.10
2023-01-09T01:43:54.494Z,21.30
2023-01-09T01:49:05.514Z,21.30
2023-01-09T01:54:14.540Z,21.30
2023-01-09T01:59:23.090Z,21.40
2023-01-09T02:04:29.222Z,21.40
2023-01-09T02:09:33.562Z,21.40
2023-01-09T02:14:37.239Z,21.40
2023-01-09T02:20:53.495Z,21.40
2023-01-09T02:26:57.774Z,21.40
2023-01-09T02:32:12.877Z,21.30
2023-01-09T02:37:28.889Z,21.30
2023-01-09T02:42:33.836Z,21.30
2023-01-09T02:47:44.255Z,21.30
2023-01-09T02:59:26.659Z,21.30
2023-01-09T03:04:49.105Z,21.20
2023-01-09T03:10:00.405Z,21.20
2023-01-09T03:15:07.461Z,21.20
2023-01-09T03:20:17.664Z,21.10
2023-01-09T03:25:21.643Z,21.10
2023-01-09T03:30:27.024Z,21.10
2023-01-09T03:35:32.159Z,21.10
2023-01-09T03:40:35.915Z,21.10
2023-01-09T03:45:39.778Z,21.10
2023-01-09T03:50:47.309Z,21.10
2023-01-09T03:55:54.493Z,21.00
2023-01-09T04:01:02.453Z,21.10
2023-01-09T04:06:08.841Z,21.00
2023-01-09T04:11:12.579Z,21.00
2023-01-09T04:16:16.263Z,20.90
2023-01-09T04:21:21.547Z,21.00
2023-01-09T04:26:25.469Z,21.10
2023-01-09T04:31:29.390Z,21.30
2023-01-09T04:36:36.290Z,21.30
2023-01-09T04:41:52.234Z,21.40
2023-01-09T04:46:58.876Z,21.40
2023-01-09T04:52:04.059Z,21.40
2023-01-09T04:57:08.013Z,21.40
2023-01-09T05:02:12.439Z,21.40
2023-01-09T05:07:17.702Z,21.40
2023-01-09T05:12:21.459Z,21.40
2023-01-09T05:17:25.261Z,21.40
2023-01-09T05:22:30.360Z,21.40
2023-01-09T05:27:34.305Z,21.40
2023-01-09T05:32:38.099Z,21.40
2023-01-09T05:37:43.464Z,21.40
2023-01-09T05:42:47.483Z,21.40
2023-01-09T05:47:51.611Z,21.30
2023-01-09T05:52:57.762Z,21.30
2023-01-09T05:58:01.631Z,21.30
2023-01-09T06:03:05.534Z,21.30
2023-01-09T06:08:10.734Z,21.20
2023-01-09T06:13:14.372Z,21.20
2023-01-09T06:18:18.317Z,21.20
2023-01-09T06:23:23.411Z,21.20
2023-01-09T06:28:27.203Z,21.20
2023-01-09T06:33:32.196Z,21.10
2023-01-09T06:38:37.527Z,21.10
2023-01-09T06:43:41.828Z,21.10
2023-01-09T06:48:45.593Z,21.20
2023-01-09T06:53:50.756Z,21.20
2023-01-09T06:58:54.450Z,21.20
2023-01-09T07:03:58.259Z,21.30
2023-01-09T07:09:06.191Z,21.30
2023-01-09T07:14:09.984Z,21.20
2023-01-09T07:19:13.695Z,21.30
2023-01-09T07:24:19.109Z,21.30
2023-01-09T07:29:23.052Z,21.30
2023-01-09T07:34:26.874Z,21.20
2023-01-09T07:39:32.077Z,21.20
2023-01-09T07:44:35.875Z,21.20
2023-01-09T07:49:39.819Z,21.20
2023-01-09T07:54:44.891Z,21.20
2023-01-09T07:59:48.561Z,20.90
2023-01-09T08:04:52.361Z,20.60
2023-01-09T08:09:57.491Z,20.40
2023-01-09T08:15:01.368Z,20.30
2023-01-09T08:20:05.904Z,20.20
2023-01-09T08:25:12.874Z,20.00
2023-01-09T08:30:18.508Z,20.00
2023-01-09T08:35:22.976Z,19.90
2023-01-09T08:40:28.214Z,19.80
2023-01-09T08:45:50.625Z,19.70
2023-01-09T08:50:54.522Z,19.80
2023-01-09T08:55:59.610Z,19.90
2023-01-09T09:01:08.191Z,20.10
2023-01-09T09:06:11.956Z,20.20
2023-01-09T09:11:17.074Z,20.20
2023-01-09T09:16:20.758Z,20.20
2023-01-09T09:21:24.622Z,20.20
2023-01-09T09:26:29.699Z,20.20
2023-01-09T09:31:33.611Z,20.20
2023-01-09T09:36:37.496Z,20.20
2023-01-09T09:42:46.990Z,20.20
2023-01-09T09:48:03.941Z,20.10
2023-01-09T09:53:15.055Z,20.10
2023-01-09T09:58:29.066Z,20.10
2023-01-09T10:03:38.640Z,20.10
2023-01-09T10:08:53.231Z,20.10
2023-01-09T10:14:22.792Z,20.10
2023-01-09T10:19:54.136Z,20.10
2023-01-09T10:25:18.229Z,20.20
2023-01-09T10:30:39.395Z,20.10
2023-01-09T10:36:22.458Z,20.00
2023-01-09T10:41:34.908Z,19.70
2023-01-09T10:46:50.415Z,19.60
2023-01-09T10:52:06.804Z,19.50
2023-01-09T10:57:16.812Z,19.50
2023-01-09T11:02:32.355Z,19.50
2023-01-09T11:07:41.065Z,19.40
2023-01-09T11:12:44.697Z,19.30
2023-01-09T11:17:52.838Z,19.50
2023-01-09T11:22:59.843Z,19.60
2023-01-09T11:28:08.728Z,19.90
2023-01-09T11:33:22.623Z,19.90
2023-01-09T11:38:26.773Z,20.00
2023-01-09T11:43:37.781Z,20.10
2023-01-09T11:48:57.133Z,20.00
2023-01-09T11:54:25.479Z,20.10
2023-01-09T11:59:32.152Z,20.00
2023-01-09T12:04:44.296Z,20.00
2023-01-09T12:10:02.429Z,20.00
2023-01-09T12:15:26.517Z,20.00
2023-01-09T12:20:49.548Z,20.00
2023-01-09T12:26:11.472Z,20.00
2023-01-09T12:31:49.187Z,20.00
2023-01-09T12:37:16.408Z,20.00
2023-01-09T12:42:40.340Z,20.00
2023-01-09T12:47:49.837Z,20.00
2023-01-09T12:53:17.997Z,20.00
2023-01-09T12:58:37.718Z,20.00
2023-01-09T13:03:50.382Z,20.00
2023-01-09T13:09:08.581Z,20.00
2023-01-09T13:14:20.345Z,20.00
2023-01-09T13:19:31.208Z,20.00
2023-01-09T13:24:48.392Z,19.90
2023-01-09T13:29:58.940Z,19.90
2023-01-09T13:35:02.998Z,19.90
2023-01-09T13:40:29.398Z,19.90
2023-01-09T13:45:37.112Z,19.90
2023-01-09T13:50:43.379Z,19.90
2023-01-09T13:56:08.261Z,19.90
2023-01-09T14:01:47.683Z,19.90
2023-01-09T14:07:21.536Z,19.90
2023-01-09T14:12:28.009Z,19.90
2023-01-09T14:17:38.993Z,19.90
2023-01-09T14:22:55.791Z,19.80
2023-01-09T14:28:22.106Z,19.80
2023-01-09T14:33:32.713Z,19.80
2023-01-09T14:38:39.042Z,19.80
2023-01-09T14:43:57.712Z,19.80
2023-01-09T14:49:08.639Z,19.80
2023-01-09T14:54:33.343Z,19.80
2023-01-09T14:59:38.980Z,19.80
2023-01-09T15:04:43.544Z,19.80
2023-01-09T15:09:49.688Z,19.80
2023-01-09T15:14:59.333Z,19.80
2023-01-09T15:20:07.555Z,19.70
2023-01-09T15:25:38.170Z,19.70
2023-01-09T15:30:44.328Z,19.70
2023-01-09T15:35:51.922Z,19.70
2023-01-09T15:41:01.249Z,19.70
2023-01-09T15:46:06.823Z,19.70
2023-01-09T15:51:15.000Z,19.70
2023-01-09T15:56:24.143Z,19.70
2023-01-09T16:01:32.800Z,19.70
2023-01-09T16:06:45.338Z,19.70
2023-01-09T16:11:53.159Z,19.60
2023-01-09T16:17:01.597Z,19.60
2023-01-09T16:22:05.689Z,19.60
2023-01-09T16:27:28.725Z,19.60
2023-01-09T16:32:37.435Z,19.60
2023-01-09T16:37:41.858Z,19.60
2023-01-09T16:43:03.456Z,19.60
2023-01-09T16:48:17.944Z,19.60
2023-01-09T16:53:27.048Z,19.60
2023-01-09T16:58:33.321Z,19.60
2023-01-09T17:03:38.579Z,19.60
2023-01-09T17:08:44.023Z,19.50
2023-01-09T17:13:48.231Z,19.60
2023-01-09T17:18:53.439Z,19.60
2023-01-09T17:24:11.685Z,19.60
2023-01-09T17:29:15.463Z,19.50
2023-01-09T17:34:20.658Z,19.50
2023-01-09T17:39:30.391Z,19.60
2023-01-09T17:44:34.207Z,19.50
2023-01-09T17:49:41.800Z,19.50
2023-01-09T17:54:45.559Z,19.50
2023-01-09T17:59:49.250Z,19.50
2023-01-09T18:04:54.238Z,19.50
2023-01-09T18:09:57.845Z,19.50
2023-01-09T18:15:02.618Z,19.60
2023-01-09T18:20:10.681Z,19.90
2023-01-09T18:25:14.388Z,20.60
2023-01-09T18:30:18.632Z,21.10
2023-01-09T18:35:23.835Z,21.50
2023-01-09T18:40:27.929Z,21.80
2023-01-09T18:45:31.836Z,21.90
2023-01-09T18:50:37.076Z,21.90
2023-01-09T18:55:40.874Z,22.00
2023-01-09T19:00:46.103Z,22.00
2023-01-09T19:05:51.416Z,22.00
2023-01-09T19:10:55.337Z,22.00
2023-01-09T19:16:00.630Z,22.00
2023-01-09T19:21:13.416Z,22.00
2023-01-09T19:26:21.224Z,22.00
2023-01-09T19:31:25.659Z,21.90
2023-01-09T19:36:30.848Z,21.90
2023-01-09T19:41:34.579Z,21.80
2023-01-09T19:46:38.342Z,21.80
2023-01-09T19:51:43.624Z,21.80
2023-01-09T19:56:47.456Z,21.70
2023-01-09T20:01:51.296Z,21.70
2023-01-09T20:06:56.405Z,21.70
2023-01-09T20:12:02.006Z,21.60
2023-01-09T20:17:05.900Z,21.50
2023-01-09T20:22:11.051Z,21.50
2023-01-09T20:27:14.827Z,21.40
2023-01-09T20:32:18.824Z,21.30
2023-01-09T20:37:23.918Z,21.20
2023-01-09T20:42:27.772Z,21.20
2023-01-09T20:47:31.566Z,21.10
2023-01-09T20:52:36.576Z,21.00
2023-01-09T20:57:40.562Z,21.00
2023-01-09T21:02:44.336Z,21.00
2023-01-09T21:07:49.833Z,21.10
2023-01-09T21:12:53.898Z,21.10
2023-01-09T21:17:58.032Z,21.10
2023-01-09T21:23:03.170Z,21.10
2023-01-09T21:28:07.341Z,21.10
2023-01-09T21:33:11.196Z,21.10
2023-01-09T21:38:16.212Z,21.10
2023-01-09T21:43:46.558Z,21.10
2023-01-09T21:48:50.349Z,21.10
2023-01-09T21:53:55.498Z,21.10
2023-01-09T21:58:59.253Z,21.10
2023-01-09T22:04:03.228Z,21.10
2023-01-09T22:09:08.423Z,21.10
2023-01-09T22:14:14.668Z,21.10
2023-01-09T22:19:19.129Z,21.10
2023-01-09T22:24:24.289Z,21.10
2023-01-09T22:29:28.137Z,21.10
2023-01-09T22:34:32.152Z,21.00
2023-01-09T22:39:37.284Z,21.00
2023-01-09T22:44:40.985Z,21.00
2023-01-09T22:49:52.831Z,21.00
2023-01-09T22:54:58.335Z,21.10
2023-01-09T23:00:02.188Z,21.30
2023-01-09T23:05:07.235Z,21.40
2023-01-09T23:10:13.417Z,21.50
2023-01-09T23:15:17.149Z,21.50
2023-01-09T23:20:21.131Z,21.50
2023-01-09T23:25:26.372Z,21.50
2023-01-09T23:30:30.110Z,21.50
2023-01-09T23:35:33.935Z,21.40
2023-01-09T23:40:41.551Z,21.50
2023-01-09T23:45:51.520Z,21.40
2023-01-09T23:50:56.944Z,21.40
2023-01-09T23:56:03.088Z,21.40
